sensor_id;sensor_type;location;lat;lon;timestamp;pressure;altitude;pressure_sealevel;temperature;humidity
64739;BME280;51175;51.186;0.276;2024-03-08T00:00:18;101039.72;;;5.40;89.73
64739;BME280;51175;51.186;0.276;2024-03-08T00:00:49;101038.94;;;5.40;89.68
64739;BME280;51175;51.186;0.276;2024-03-08T00:01:21;101041.56;;;5.40;89.69
64739;BME280;51175;51.186;0.276;2024-03-08T00:01:53;101041.56;;;5.40;89.56
64739;BME280;51175;51.186;0.276;2024-03-08T00:02:24;101035.50;;;5.39;89.65
64739;BME280;51175;51.186;0.276;2024-03-08T00:02:55;101040.75;;;5.39;89.67
64739;BME280;51175;51.186;0.276;2024-03-08T00:03:26;101041.56;;;5.40;89.63
64739;BME280;51175;51.186;0.276;2024-03-08T00:03:57;101037.09;;;5.40;89.50
64739;BME280;51175;51.186;0.276;2024-03-08T00:04:27;101038.13;;;5.39;89.70
64739;BME280;51175;51.186;0.276;2024-03-08T00:04:58;101036.31;;;5.40;89.54
64739;BME280;51175;51.186;0.276;2024-03-08T00:05:29;101041.34;;;5.41;89.62
64739;BME280;51175;51.186;0.276;2024-03-08T00:06:02;101036.31;;;5.40;89.72
64739;BME280;51175;51.186;0.276;2024-03-08T00:06:34;101032.06;;;5.39;89.55
64739;BME280;51175;51.186;0.276;2024-03-08T00:07:05;101034.69;;;5.39;89.55
64739;BME280;51175;51.186;0.276;2024-03-08T00:07:40;101033.09;;;5.38;89.50
64739;BME280;51175;51.186;0.276;2024-03-08T00:08:13;101029.09;;;5.35;89.57
64739;BME280;51175;51.186;0.276;2024-03-08T00:08:44;101034.13;;;5.37;89.49
64739;BME280;51175;51.186;0.276;2024-03-08T00:09:14;101035.94;;;5.36;89.46
64739;BME280;51175;51.186;0.276;2024-03-08T00:09:46;101033.53;;;5.34;89.48
64739;BME280;51175;51.186;0.276;2024-03-08T00:10:16;101029.09;;;5.35;89.59
64739;BME280;51175;51.186;0.276;2024-03-08T00:10:47;101030.09;;;5.34;89.72
64739;BME280;51175;51.186;0.276;2024-03-08T00:11:18;101029.88;;;5.36;89.52
64739;BME280;51175;51.186;0.276;2024-03-08T00:11:48;101031.72;;;5.35;89.50
64739;BME280;51175;51.186;0.276;2024-03-08T00:12:20;101029.88;;;5.36;89.43
64739;BME280;51175;51.186;0.276;2024-03-08T00:12:51;101023.84;;;5.35;89.40
64739;BME280;51175;51.186;0.276;2024-03-08T00:13:23;101030.91;;;5.34;89.63
64739;BME280;51175;51.186;0.276;2024-03-08T00:13:55;101030.09;;;5.34;89.52
64739;BME280;51175;51.186;0.276;2024-03-08T00:14:29;101031.94;;;5.33;89.58
64739;BME280;51175;51.186;0.276;2024-03-08T00:14:59;101025.88;;;5.33;89.47
64739;BME280;51175;51.186;0.276;2024-03-08T00:15:30;101026.88;;;5.32;89.61
64739;BME280;51175;51.186;0.276;2024-03-08T00:16:02;101029.50;;;5.32;89.43
64739;BME280;51175;51.186;0.276;2024-03-08T00:16:33;101033.13;;;5.31;89.66
64739;BME280;51175;51.186;0.276;2024-03-08T00:17:05;101026.28;;;5.30;89.50
64739;BME280;51175;51.186;0.276;2024-03-08T00:17:36;101021.06;;;5.30;89.70
64739;BME280;51175;51.186;0.276;2024-03-08T00:18:06;101022.06;;;5.29;89.50
64739;BME280;51175;51.186;0.276;2024-03-08T00:18:37;101028.09;;;5.29;89.75
64739;BME280;51175;51.186;0.276;2024-03-08T00:19:07;101023.69;;;5.30;89.76
64739;BME280;51175;51.186;0.276;2024-03-08T00:19:38;101022.06;;;5.29;89.60
64739;BME280;51175;51.186;0.276;2024-03-08T00:20:11;101022.88;;;5.29;89.59
64739;BME280;51175;51.186;0.276;2024-03-08T00:20:43;101021.28;;;5.28;89.62
64739;BME280;51175;51.186;0.276;2024-03-08T00:21:15;101011.56;;;5.29;89.64
64739;BME280;51175;51.186;0.276;2024-03-08T00:21:45;101013.41;;;5.28;89.63
64739;BME280;51175;51.186;0.276;2024-03-08T00:22:17;101014.41;;;5.27;89.75
64739;BME280;51175;51.186;0.276;2024-03-08T00:22:47;101016.25;;;5.27;89.82
64739;BME280;51175;51.186;0.276;2024-03-08T00:23:18;101012.00;;;5.26;89.81
64739;BME280;51175;51.186;0.276;2024-03-08T00:23:48;101019.84;;;5.26;89.98
64739;BME280;51175;51.186;0.276;2024-03-08T00:24:19;101009.38;;;5.26;89.92
64739;BME280;51175;51.186;0.276;2024-03-08T00:24:54;101013.84;;;5.25;89.92
64739;BME280;51175;51.186;0.276;2024-03-08T00:25:25;101009.59;;;5.24;89.80
64739;BME280;51175;51.186;0.276;2024-03-08T00:25:56;101013.84;;;5.25;89.95
64739;BME280;51175;51.186;0.276;2024-03-08T00:26:26;101007.78;;;5.25;90.02
64739;BME280;51175;51.186;0.276;2024-03-08T00:26:57;101005.16;;;5.25;89.92
64739;BME280;51175;51.186;0.276;2024-03-08T00:27:28;101006.97;;;5.24;90.07
64739;BME280;51175;51.186;0.276;2024-03-08T00:28:00;101001.72;;;5.24;90.13
64739;BME280;51175;51.186;0.276;2024-03-08T00:28:31;101011.44;;;5.24;90.17
64739;BME280;51175;51.186;0.276;2024-03-08T00:29:01;101002.53;;;5.25;90.13
64739;BME280;51175;51.186;0.276;2024-03-08T00:29:32;101006.97;;;5.24;90.19
64739;BME280;51175;51.186;0.276;2024-03-08T00:30:03;101002.53;;;5.25;90.30
64739;BME280;51175;51.186;0.276;2024-03-08T00:30:33;101001.72;;;5.24;90.14
64739;BME280;51175;51.186;0.276;2024-03-08T00:31:04;101006.19;;;5.24;90.26
64739;BME280;51175;51.186;0.276;2024-03-08T00:31:37;101000.94;;;5.24;90.31
64739;BME280;51175;51.186;0.276;2024-03-08T00:32:07;100995.91;;;5.22;90.30
64739;BME280;51175;51.186;0.276;2024-03-08T00:32:38;101002.97;;;5.21;90.26
64739;BME280;51175;51.186;0.276;2024-03-08T00:33:08;100997.94;;;5.20;90.38
64739;BME280;51175;51.186;0.276;2024-03-08T00:33:39;101004.00;;;5.20;90.30
64739;BME280;51175;51.186;0.276;2024-03-08T00:34:09;100999.53;;;5.21;90.38
64739;BME280;51175;51.186;0.276;2024-03-08T00:34:41;101004.97;;;5.19;90.44
64739;BME280;51175;51.186;0.276;2024-03-08T00:35:13;101001.38;;;5.20;90.29
64739;BME280;51175;51.186;0.276;2024-03-08T00:35:43;101000.78;;;5.18;90.57
64739;BME280;51175;51.186;0.276;2024-03-08T00:36:13;100996.56;;;5.17;90.50
64739;BME280;51175;51.186;0.276;2024-03-08T00:36:44;100996.56;;;5.17;90.60
64739;BME280;51175;51.186;0.276;2024-03-08T00:37:15;100997.34;;;5.18;90.58
64739;BME280;51175;51.186;0.276;2024-03-08T00:37:46;100997.53;;;5.16;90.55
64739;BME280;51175;51.186;0.276;2024-03-08T00:39:33;100989.53;;;5.11;90.70
64739;BME280;51175;51.186;0.276;2024-03-08T00:40:04;100990.53;;;5.10;90.66
64739;BME280;51175;51.186;0.276;2024-03-08T00:40:37;100991.56;;;5.09;90.72
64739;BME280;51175;51.186;0.276;2024-03-08T00:41:07;100990.75;;;5.08;90.80
64739;BME280;51175;51.186;0.276;2024-03-08T00:41:38;100997.81;;;5.08;90.66
64739;BME280;51175;51.186;0.276;2024-03-08T00:42:08;100989.97;;;5.08;90.75
64739;BME280;51175;51.186;0.276;2024-03-08T00:42:39;100989.16;;;5.07;90.79
64739;BME280;51175;51.186;0.276;2024-03-08T00:43:13;100985.94;;;5.05;90.70
64739;BME280;51175;51.186;0.276;2024-03-08T00:43:45;100990.16;;;5.06;90.90
64739;BME280;51175;51.186;0.276;2024-03-08T00:44:17;100986.75;;;5.06;90.66
64739;BME280;51175;51.186;0.276;2024-03-08T00:44:49;100987.75;;;5.05;90.78
64739;BME280;51175;51.186;0.276;2024-03-08T00:45:21;100989.34;;;5.06;90.87
64739;BME280;51175;51.186;0.276;2024-03-08T00:45:53;100987.75;;;5.05;90.84
64739;BME280;51175;51.186;0.276;2024-03-08T00:46:24;100973.84;;;5.04;91.03
64739;BME280;51175;51.186;0.276;2024-03-08T00:46:55;100986.94;;;5.04;91.03
64739;BME280;51175;51.186;0.276;2024-03-08T00:47:26;100988.75;;;5.04;91.14
64739;BME280;51175;51.186;0.276;2024-03-08T00:47:57;100976.69;;;5.03;90.95
64739;BME280;51175;51.186;0.276;2024-03-08T00:48:27;100979.31;;;5.03;91.01
64739;BME280;51175;51.186;0.276;2024-03-08T00:48:58;100987.97;;;5.03;91.03
64739;BME280;51175;51.186;0.276;2024-03-08T00:49:28;100982.94;;;5.02;91.11
64739;BME280;51175;51.186;0.276;2024-03-08T00:49:59;100986.56;;;5.01;91.03
64739;BME280;51175;51.186;0.276;2024-03-08T00:50:29;100982.34;;;5.00;91.07
64739;BME280;51175;51.186;0.276;2024-03-08T00:51:00;100976.09;;;5.01;91.13
64739;BME280;51175;51.186;0.276;2024-03-08T00:51:32;100979.72;;;5.00;91.08
64739;BME280;51175;51.186;0.276;2024-03-08T00:52:02;100979.72;;;5.00;91.11
64739;BME280;51175;51.186;0.276;2024-03-08T00:52:33;100979.94;;;4.98;91.21
64739;BME280;51175;51.186;0.276;2024-03-08T00:53:04;100979.13;;;4.97;91.29
64739;BME280;51175;51.186;0.276;2024-03-08T00:53:36;100987.78;;;4.98;90.99
64739;BME280;51175;51.186;0.276;2024-03-08T00:54:06;100983.34;;;4.99;91.20
64739;BME280;51175;51.186;0.276;2024-03-08T00:54:37;100976.50;;;4.97;91.32
64739;BME280;51175;51.186;0.276;2024-03-08T00:55:07;100979.94;;;4.98;91.32
64739;BME280;51175;51.186;0.276;2024-03-08T00:55:40;100975.69;;;4.97;91.31
64739;BME280;51175;51.186;0.276;2024-03-08T00:56:11;100979.34;;;4.96;91.47
64739;BME280;51175;51.186;0.276;2024-03-08T00:56:44;100975.31;;;4.93;91.32
64739;BME280;51175;51.186;0.276;2024-03-08T00:57:18;100977.72;;;4.95;91.28
64739;BME280;51175;51.186;0.276;2024-03-08T00:57:48;100976.91;;;4.94;91.15
64739;BME280;51175;51.186;0.276;2024-03-08T00:58:19;100981.34;;;4.94;91.25
64739;BME280;51175;51.186;0.276;2024-03-08T00:58:49;100977.94;;;4.93;91.30
64739;BME280;51175;51.186;0.276;2024-03-08T00:59:23;100979.97;;;4.91;91.37
64739;BME280;51175;51.186;0.276;2024-03-08T00:59:54;100983.38;;;4.92;91.35
64739;BME280;51175;51.186;0.276;2024-03-08T01:00:24;100977.34;;;4.91;91.46
64739;BME280;51175;51.186;0.276;2024-03-08T01:00:55;100975.75;;;4.90;91.52
64739;BME280;51175;51.186;0.276;2024-03-08T01:01:27;100974.94;;;4.90;91.34
64739;BME280;51175;51.186;0.276;2024-03-08T01:01:58;100975.75;;;4.90;91.17
64739;BME280;51175;51.186;0.276;2024-03-08T01:02:30;100974.13;;;4.89;91.44
64739;BME280;51175;51.186;0.276;2024-03-08T01:03:00;100974.13;;;4.89;91.40
64739;BME280;51175;51.186;0.276;2024-03-08T01:03:31;100973.34;;;4.89;91.43
64739;BME280;51175;51.186;0.276;2024-03-08T01:04:02;100976.94;;;4.88;91.28
64739;BME280;51175;51.186;0.276;2024-03-08T01:04:32;100969.91;;;4.88;91.43
64739;BME280;51175;51.186;0.276;2024-03-08T01:05:03;100971.72;;;4.88;91.32
64739;BME280;51175;51.186;0.276;2024-03-08T01:05:37;100974.31;;;4.88;91.45
64739;BME280;51175;51.186;0.276;2024-03-08T01:06:08;100970.72;;;4.89;91.44
64739;BME280;51175;51.186;0.276;2024-03-08T01:06:38;100970.94;;;4.87;91.46
64739;BME280;51175;51.186;0.276;2024-03-08T01:07:09;100973.53;;;4.87;91.47
64739;BME280;51175;51.186;0.276;2024-03-08T01:07:42;100977.16;;;4.86;91.36
64739;BME280;51175;51.186;0.276;2024-03-08T01:08:16;100968.53;;;4.86;91.50
64739;BME280;51175;51.186;0.276;2024-03-08T01:08:46;100970.31;;;4.85;91.43
64739;BME280;51175;51.186;0.276;2024-03-08T01:09:17;100967.72;;;4.85;91.39
64739;BME280;51175;51.186;0.276;2024-03-08T01:09:47;100971.91;;;4.86;91.29
64739;BME280;51175;51.186;0.276;2024-03-08T01:10:18;100970.31;;;4.85;91.40
64739;BME280;51175;51.186;0.276;2024-03-08T01:10:48;100969.50;;;4.84;91.44
64739;BME280;51175;51.186;0.276;2024-03-08T01:11:21;100966.13;;;4.84;91.37
64739;BME280;51175;51.186;0.276;2024-03-08T01:11:51;100970.53;;;4.83;91.49
64739;BME280;51175;51.186;0.276;2024-03-08T01:12:23;100967.09;;;4.83;91.45
64739;BME280;51175;51.186;0.276;2024-03-08T01:12:53;100963.72;;;4.82;91.53
64739;BME280;51175;51.186;0.276;2024-03-08T01:13:26;100959.47;;;4.81;91.33
64739;BME280;51175;51.186;0.276;2024-03-08T01:13:57;100961.28;;;4.81;91.55
64739;BME280;51175;51.186;0.276;2024-03-08T01:14:27;100960.28;;;4.82;91.46
64739;BME280;51175;51.186;0.276;2024-03-08T01:15:04;100960.47;;;4.80;91.50
64739;BME280;51175;51.186;0.276;2024-03-08T01:15:35;100960.47;;;4.80;91.64
64739;BME280;51175;51.186;0.276;2024-03-08T01:16:05;100953.44;;;4.81;91.53
64739;BME280;51175;51.186;0.276;2024-03-08T01:16:36;100957.88;;;4.80;91.64
64739;BME280;51175;51.186;0.276;2024-03-08T01:17:06;100956.06;;;4.81;91.57
64739;BME280;51175;51.186;0.276;2024-03-08T01:17:37;100960.28;;;4.82;91.67
64739;BME280;51175;51.186;0.276;2024-03-08T01:18:08;100959.25;;;4.83;91.67
64739;BME280;51175;51.186;0.276;2024-03-08T01:18:38;100955.25;;;4.80;91.60
64739;BME280;51175;51.186;0.276;2024-03-08T01:19:09;100960.47;;;4.80;91.68
64739;BME280;51175;51.186;0.276;2024-03-08T01:19:39;100954.22;;;4.81;91.57
64739;BME280;51175;51.186;0.276;2024-03-08T01:20:10;100957.66;;;4.82;91.62
64739;BME280;51175;51.186;0.276;2024-03-08T01:20:43;100957.88;;;4.80;91.64
64739;BME280;51175;51.186;0.276;2024-03-08T01:21:13;100956.84;;;4.81;91.60
64739;BME280;51175;51.186;0.276;2024-03-08T01:21:44;100953.44;;;4.81;91.58
64739;BME280;51175;51.186;0.276;2024-03-08T01:22:14;100957.06;;;4.80;91.61
64739;BME280;51175;51.186;0.276;2024-03-08T01:22:45;100956.06;;;4.81;91.67
64739;BME280;51175;51.186;0.276;2024-03-08T01:23:16;100956.84;;;4.81;91.61
64739;BME280;51175;51.186;0.276;2024-03-08T01:23:47;100954.44;;;4.80;91.41
64739;BME280;51175;51.186;0.276;2024-03-08T01:24:17;100950.81;;;4.81;91.62
64739;BME280;51175;51.186;0.276;2024-03-08T01:24:48;100949.00;;;4.81;91.49
64739;BME280;51175;51.186;0.276;2024-03-08T01:25:18;100944.78;;;4.80;91.56
64739;BME280;51175;51.186;0.276;2024-03-08T01:25:49;100949.00;;;4.81;91.42
64739;BME280;51175;51.186;0.276;2024-03-08T01:26:26;100950.00;;;4.80;91.56
64739;BME280;51175;51.186;0.276;2024-03-08T01:26:57;100943.97;;;4.80;91.42
64739;BME280;51175;51.186;0.276;2024-03-08T01:27:27;100944.78;;;4.80;91.47
64739;BME280;51175;51.186;0.276;2024-03-08T01:27:58;100945.81;;;4.79;91.31
64739;BME280;51175;51.186;0.276;2024-03-08T01:28:30;100945.00;;;4.79;91.32
64739;BME280;51175;51.186;0.276;2024-03-08T01:29:01;100944.19;;;4.78;91.44
64739;BME280;51175;51.186;0.276;2024-03-08T01:29:33;100945.00;;;4.79;91.30
64739;BME280;51175;51.186;0.276;2024-03-08T01:30:04;100943.41;;;4.78;91.36
64739;BME280;51175;51.186;0.276;2024-03-08T01:30:34;100939.75;;;4.79;91.27
64739;BME280;51175;51.186;0.276;2024-03-08T01:31:07;100936.31;;;4.78;91.24
64739;BME280;51175;51.186;0.276;2024-03-08T01:31:37;100944.19;;;4.78;91.30
64739;BME280;51175;51.186;0.276;2024-03-08T01:32:07;100940.78;;;4.78;91.18
64739;BME280;51175;51.186;0.276;2024-03-08T01:32:38;100943.41;;;4.78;91.28
64739;BME280;51175;51.186;0.276;2024-03-08T01:33:09;100941.78;;;4.77;91.14
64739;BME280;51175;51.186;0.276;2024-03-08T01:33:39;100948.03;;;4.76;91.17
64739;BME280;51175;51.186;0.276;2024-03-08T01:34:10;100947.22;;;4.75;91.16
64739;BME280;51175;51.186;0.276;2024-03-08T01:34:40;100941.19;;;4.75;91.04
64739;BME280;51175;51.186;0.276;2024-03-08T01:35:11;100939.56;;;4.74;90.96
64739;BME280;51175;51.186;0.276;2024-03-08T01:35:42;100936.94;;;4.74;91.07
64739;BME280;51175;51.186;0.276;2024-03-08T01:36:12;100941.97;;;4.75;91.00
64739;BME280;51175;51.186;0.276;2024-03-08T01:36:45;100935.16;;;4.74;90.94
64739;BME280;51175;51.186;0.276;2024-03-08T01:37:16;100934.34;;;4.74;90.87
64739;BME280;51175;51.186;0.276;2024-03-08T01:37:46;100933.56;;;4.73;90.75
64739;BME280;51175;51.186;0.276;2024-03-08T01:38:19;100937.97;;;4.72;90.92
64739;BME280;51175;51.186;0.276;2024-03-08T01:38:49;100937.97;;;4.72;90.99
64739;BME280;51175;51.186;0.276;2024-03-08T01:39:20;100938.78;;;4.73;90.88
64739;BME280;51175;51.186;0.276;2024-03-08T01:39:52;100931.16;;;4.71;90.93
64739;BME280;51175;51.186;0.276;2024-03-08T01:40:22;100934.53;;;4.72;90.87
64739;BME280;51175;51.186;0.276;2024-03-08T01:40:53;100934.75;;;4.70;90.86
64739;BME280;51175;51.186;0.276;2024-03-08T01:41:23;100930.34;;;4.71;90.83
64739;BME280;51175;51.186;0.276;2024-03-08T01:41:54;100931.34;;;4.70;90.81
64739;BME280;51175;51.186;0.276;2024-03-08T01:42:24;100927.94;;;4.69;90.82
64739;BME280;51175;51.186;0.276;2024-03-08T01:42:55;100927.94;;;4.69;90.80
64739;BME280;51175;51.186;0.276;2024-03-08T01:43:27;100934.97;;;4.69;90.76
64739;BME280;51175;51.186;0.276;2024-03-08T01:44:02;100925.53;;;4.68;90.73
64739;BME280;51175;51.186;0.276;2024-03-08T01:44:33;100924.72;;;4.67;90.75
64739;BME280;51175;51.186;0.276;2024-03-08T01:45:08;100932.56;;;4.67;90.69
64739;BME280;51175;51.186;0.276;2024-03-08T01:45:38;100923.91;;;4.67;90.80
64739;BME280;51175;51.186;0.276;2024-03-08T01:46:09;100925.72;;;4.66;90.74
64739;BME280;51175;51.186;0.276;2024-03-08T01:46:45;100925.13;;;4.64;90.66
64739;BME280;51175;51.186;0.276;2024-03-08T01:47:17;100930.16;;;4.66;90.67
64739;BME280;51175;51.186;0.276;2024-03-08T01:47:48;100929.34;;;4.65;90.93
64739;BME280;51175;51.186;0.276;2024-03-08T01:48:19;100925.13;;;4.64;90.83
64739;BME280;51175;51.186;0.276;2024-03-08T01:48:54;100922.50;;;4.64;90.65
64739;BME280;51175;51.186;0.276;2024-03-08T01:49:25;100924.31;;;4.64;90.60
64739;BME280;51175;51.186;0.276;2024-03-08T01:49:57;100925.13;;;4.64;90.63
64739;BME280;51175;51.186;0.276;2024-03-08T01:50:28;100920.09;;;4.63;90.78
64739;BME280;51175;51.186;0.276;2024-03-08T01:51:00;100917.47;;;4.63;90.65
64739;BME280;51175;51.186;0.276;2024-03-08T01:51:30;100916.66;;;4.62;90.68
64739;BME280;51175;51.186;0.276;2024-03-08T01:52:01;100917.69;;;4.61;90.66
64739;BME280;51175;51.186;0.276;2024-03-08T01:52:33;100918.50;;;4.62;90.68
64739;BME280;51175;51.186;0.276;2024-03-08T01:53:05;100915.88;;;4.62;90.52
64739;BME280;51175;51.186;0.276;2024-03-08T01:53:35;100918.72;;;4.60;90.72
64739;BME280;51175;51.186;0.276;2024-03-08T01:54:06;100912.66;;;4.59;90.73
64739;BME280;51175;51.186;0.276;2024-03-08T01:54:37;100910.06;;;4.59;90.79
64739;BME280;51175;51.186;0.276;2024-03-08T01:55:08;100913.69;;;4.58;90.71
64739;BME280;51175;51.186;0.276;2024-03-08T01:55:39;100918.91;;;4.58;90.59
64739;BME280;51175;51.186;0.276;2024-03-08T01:56:10;100911.06;;;4.58;90.79
64739;BME280;51175;51.186;0.276;2024-03-08T01:56:40;100915.50;;;4.58;90.75
64739;BME280;51175;51.186;0.276;2024-03-08T01:57:11;100912.88;;;4.58;90.79
64739;BME280;51175;51.186;0.276;2024-03-08T01:57:42;100911.28;;;4.57;90.71
64739;BME280;51175;51.186;0.276;2024-03-08T01:58:14;100913.09;;;4.56;90.74
64739;BME280;51175;51.186;0.276;2024-03-08T01:58:50;100910.47;;;4.56;90.71
64739;BME280;51175;51.186;0.276;2024-03-08T01:59:20;100906.25;;;4.55;90.67
64739;BME280;51175;51.186;0.276;2024-03-08T01:59:51;100910.69;;;4.55;90.69
64739;BME280;51175;51.186;0.276;2024-03-08T02:00:25;100904.63;;;4.54;90.65
64739;BME280;51175;51.186;0.276;2024-03-08T02:00:57;100908.28;;;4.53;90.77
64739;BME280;51175;51.186;0.276;2024-03-08T02:01:30;100903.84;;;4.54;90.72
64739;BME280;51175;51.186;0.276;2024-03-08T02:02:01;100905.44;;;4.55;90.80
64739;BME280;51175;51.186;0.276;2024-03-08T02:02:33;100909.09;;;4.54;90.85
64739;BME280;51175;51.186;0.276;2024-03-08T02:03:05;100909.09;;;4.54;90.77
64739;BME280;51175;51.186;0.276;2024-03-08T02:03:35;100907.25;;;4.54;90.74
64739;BME280;51175;51.186;0.276;2024-03-08T02:04:06;100910.06;;;4.53;90.83
64739;BME280;51175;51.186;0.276;2024-03-08T02:04:37;100909.09;;;4.54;90.79
64739;BME280;51175;51.186;0.276;2024-03-08T02:05:09;100904.84;;;4.53;90.75
64739;BME280;51175;51.186;0.276;2024-03-08T02:05:40;100903.25;;;4.52;90.82
64739;BME280;51175;51.186;0.276;2024-03-08T02:06:12;100901.44;;;4.52;90.73
64739;BME280;51175;51.186;0.276;2024-03-08T02:06:44;100902.22;;;4.53;90.85
64739;BME280;51175;51.186;0.276;2024-03-08T02:07:15;100900.63;;;4.52;90.75
64739;BME280;51175;51.186;0.276;2024-03-08T02:07:46;100898.81;;;4.52;90.87
64739;BME280;51175;51.186;0.276;2024-03-08T02:08:17;100897.19;;;4.51;90.95
64739;BME280;51175;51.186;0.276;2024-03-08T02:08:48;100900.63;;;4.52;90.88
64739;BME280;51175;51.186;0.276;2024-03-08T02:09:19;100897.19;;;4.51;90.97
64739;BME280;51175;51.186;0.276;2024-03-08T02:09:49;100894.59;;;4.51;90.78
64739;BME280;51175;51.186;0.276;2024-03-08T02:10:21;100897.41;;;4.50;90.73
64739;BME280;51175;51.186;0.276;2024-03-08T02:10:52;100898.44;;;4.49;90.83
64739;BME280;51175;51.186;0.276;2024-03-08T02:11:22;100897.41;;;4.50;91.03
64739;BME280;51175;51.186;0.276;2024-03-08T02:11:54;100889.78;;;4.48;90.80
64739;BME280;51175;51.186;0.276;2024-03-08T02:12:25;100895.22;;;4.46;91.03
64739;BME280;51175;51.186;0.276;2024-03-08T02:12:55;100892.59;;;4.46;90.95
64739;BME280;51175;51.186;0.276;2024-03-08T02:13:26;100891.81;;;4.46;90.97
64739;BME280;51175;51.186;0.276;2024-03-08T02:13:56;100893.63;;;4.45;90.91
64739;BME280;51175;51.186;0.276;2024-03-08T02:14:27;100889.41;;;4.44;90.66
64739;BME280;51175;51.186;0.276;2024-03-08T02:14:58;100886.78;;;4.44;90.84
64739;BME280;51175;51.186;0.276;2024-03-08T02:16:21;100883.56;;;4.42;90.97
64739;BME280;51175;51.186;0.276;2024-03-08T02:16:52;100888.81;;;4.42;90.86
64739;BME280;51175;51.186;0.276;2024-03-08T02:17:24;100883.56;;;4.42;91.10
64739;BME280;51175;51.186;0.276;2024-03-08T02:17:54;100888.00;;;4.42;90.95
64739;BME280;51175;51.186;0.276;2024-03-08T02:18:26;100881.78;;;4.43;90.98
64739;BME280;51175;51.186;0.276;2024-03-08T02:18:57;100885.16;;;4.43;91.12
64739;BME280;51175;51.186;0.276;2024-03-08T02:19:28;100879.16;;;4.43;91.12
64739;BME280;51175;51.186;0.276;2024-03-08T02:19:59;100882.56;;;4.43;91.08
64739;BME280;51175;51.186;0.276;2024-03-08T02:20:31;100881.78;;;4.43;91.22
64739;BME280;51175;51.186;0.276;2024-03-08T02:21:03;100883.38;;;4.44;91.10
64739;BME280;51175;51.186;0.276;2024-03-08T02:21:34;100879.94;;;4.43;91.15
64739;BME280;51175;51.186;0.276;2024-03-08T02:22:05;100877.13;;;4.45;91.21
64739;BME280;51175;51.186;0.276;2024-03-08T02:22:36;100878.94;;;4.44;91.33
64739;BME280;51175;51.186;0.276;2024-03-08T02:23:07;100875.31;;;4.45;91.20
64739;BME280;51175;51.186;0.276;2024-03-08T02:23:37;100870.06;;;4.45;91.20
64739;BME280;51175;51.186;0.276;2024-03-08T02:24:08;100865.66;;;4.46;91.24
64739;BME280;51175;51.186;0.276;2024-03-08T02:24:38;100864.03;;;4.45;91.26
64739;BME280;51175;51.186;0.276;2024-03-08T02:25:09;100867.47;;;4.45;91.38
64739;BME280;51175;51.186;0.276;2024-03-08T02:25:43;100872.69;;;4.45;91.34
64739;BME280;51175;51.186;0.276;2024-03-08T02:26:14;100871.09;;;4.44;91.32
64739;BME280;51175;51.186;0.276;2024-03-08T02:26:44;100861.63;;;4.43;91.34
64739;BME280;51175;51.186;0.276;2024-03-08T02:27:15;100861.63;;;4.43;91.38
64739;BME280;51175;51.186;0.276;2024-03-08T02:27:47;100861.84;;;4.42;91.44
64739;BME280;51175;51.186;0.276;2024-03-08T02:28:17;100860.84;;;4.43;91.41
64739;BME280;51175;51.186;0.276;2024-03-08T02:28:51;100867.06;;;4.42;91.51
64739;BME280;51175;51.186;0.276;2024-03-08T02:29:22;100863.66;;;4.41;91.34
64739;BME280;51175;51.186;0.276;2024-03-08T02:29:57;100862.03;;;4.40;91.42
64739;BME280;51175;51.186;0.276;2024-03-08T02:30:30;100857.84;;;4.39;91.37
64739;BME280;51175;51.186;0.276;2024-03-08T02:31:02;100856.03;;;4.40;91.37
64739;BME280;51175;51.186;0.276;2024-03-08T02:31:32;100857.63;;;4.41;91.45
64739;BME280;51175;51.186;0.276;2024-03-08T02:32:03;100858.66;;;4.40;91.60
64739;BME280;51175;51.186;0.276;2024-03-08T02:32:33;100854.41;;;4.39;91.53
64739;BME280;51175;51.186;0.276;2024-03-08T02:33:06;100851.78;;;4.39;91.44
64739;BME280;51175;51.186;0.276;2024-03-08T02:33:37;100851.78;;;4.39;91.40
64739;BME280;51175;51.186;0.276;2024-03-08T02:34:07;100857.03;;;4.39;91.51
64739;BME280;51175;51.186;0.276;2024-03-08T02:34:38;100854.63;;;4.37;91.44
64739;BME280;51175;51.186;0.276;2024-03-08T02:35:08;100848.59;;;4.37;91.49
64739;BME280;51175;51.186;0.276;2024-03-08T02:35:39;100853.03;;;4.36;91.46
64739;BME280;51175;51.186;0.276;2024-03-08T02:36:09;100841.97;;;4.34;91.35
64739;BME280;51175;51.186;0.276;2024-03-08T02:36:40;100844.56;;;4.34;91.30
64739;BME280;51175;51.186;0.276;2024-03-08T02:37:12;100846.41;;;4.33;91.30
64739;BME280;51175;51.186;0.276;2024-03-08T02:37:42;100845.59;;;4.33;91.13
64739;BME280;51175;51.186;0.276;2024-03-08T02:38:15;100843.78;;;4.33;91.30
64739;BME280;51175;51.186;0.276;2024-03-08T02:38:46;100851.03;;;4.31;91.23
64739;BME280;51175;51.186;0.276;2024-03-08T02:39:16;100846.78;;;4.30;91.16
64739;BME280;51175;51.186;0.276;2024-03-08T02:39:49;100849.41;;;4.30;91.17
64739;BME280;51175;51.186;0.276;2024-03-08T02:40:19;100848.63;;;4.30;91.23
64739;BME280;51175;51.186;0.276;2024-03-08T02:40:51;100839.97;;;4.29;91.24
64739;BME280;51175;51.186;0.276;2024-03-08T02:41:22;100843.59;;;4.28;91.15
64739;BME280;51175;51.186;0.276;2024-03-08T02:41:53;100841.97;;;4.27;91.18
64739;BME280;51175;51.186;0.276;2024-03-08T02:42:23;100849.03;;;4.27;91.33
64739;BME280;51175;51.186;0.276;2024-03-08T02:42:54;100834.56;;;4.24;91.22
64739;BME280;51175;51.186;0.276;2024-03-08T02:43:24;100831.94;;;4.24;91.26
64739;BME280;51175;51.186;0.276;2024-03-08T02:43:55;100836.59;;;4.22;91.09
64739;BME280;51175;51.186;0.276;2024-03-08T02:44:26;100830.34;;;4.23;91.43
64739;BME280;51175;51.186;0.276;2024-03-08T02:44:56;100833.97;;;4.22;91.29
64739;BME280;51175;51.186;0.276;2024-03-08T02:45:28;100835.78;;;4.21;91.27
64739;BME280;51175;51.186;0.276;2024-03-08T02:46:00;100837.59;;;4.21;91.26
64739;BME280;51175;51.186;0.276;2024-03-08T02:46:30;100827.13;;;4.21;91.38
64739;BME280;51175;51.186;0.276;2024-03-08T02:47:01;100829.75;;;4.21;91.43
64739;BME280;51175;51.186;0.276;2024-03-08T02:47:32;100827.34;;;4.19;91.52